createdAt,value
2024-01-29T00:00:49.860Z,24.3
2024-01-29T00:06:48.787Z,27.5
2024-01-29T00:12:46.350Z,30.1
2024-01-29T00:18:41.053Z,27.5
2024-01-29T00:24:35.587Z,26.3
2024-01-29T00:30:14.049Z,25.3
2024-01-29T00:36:14.917Z,26.4
2024-01-29T00:42:09.819Z,29.8
2024-01-29T00:53:50.842Z,26.9
2024-01-29T00:59:45.841Z,25.3
2024-01-29T01:05:47.314Z,24.8
2024-01-29T01:11:41.223Z,29.1
2024-01-29T01:17:19.883Z,29.1
2024-01-29T01:23:15.676Z,27.1
2024-01-29T01:29:09.932Z,25.5
2024-01-29T01:35:05.063Z,24.9
2024-01-29T01:41:02.140Z,28.4
2024-01-29T01:46:56.770Z,23.9
2024-01-29T01:52:58.814Z,28.8
2024-01-29T01:58:54.439Z,29.3
2024-01-29T02:04:51.794Z,27.1
2024-01-29T02:10:47.118Z,25.4
2024-01-29T02:16:41.291Z,24.9
2024-01-29T02:22:36.087Z,28.5
2024-01-29T02:28:30.324Z,30.3
2024-01-29T02:34:27.599Z,27.2
2024-01-29T02:40:21.577Z,27.9
2024-01-29T02:46:00.595Z,30.2
2024-01-29T02:51:56.625Z,27.4
2024-01-29T02:57:50.664Z,26
2024-01-29T03:03:45.837Z,25
2024-01-29T03:09:44.969Z,27.1
2024-01-29T03:15:41.253Z,29.8
2024-01-29T03:21:21.084Z,27.9
2024-01-29T03:27:18.506Z,26.9
2024-01-29T03:33:12.555Z,29.3
2024-01-29T03:39:07.102Z,28.7
2024-01-29T03:44:45.949Z,27
2024-01-29T03:50:41.015Z,28.2
2024-01-29T03:56:38.124Z,30.3
2024-01-29T04:02:34.928Z,27.3
2024-01-29T04:08:16.154Z,26.6
2024-01-29T04:14:10.039Z,29.6
2024-01-29T04:20:10.519Z,23.4
2024-01-29T04:26:07.419Z,28.6
2024-01-29T04:31:46.833Z,29.6
2024-01-29T04:37:42.121Z,27.1
2024-01-29T04:43:37.139Z,27.5
2024-01-29T04:49:17.870Z,30
2024-01-29T04:54:56.610Z,27.7
2024-01-29T05:00:20.273Z,26.8
2024-01-29T05:06:04.391Z,25.2
2024-01-29T05:11:44.324Z,24.8
2024-01-29T05:17:07.350Z,28.9
2024-01-29T05:22:49.600Z,30.6
2024-01-29T05:28:45.023Z,27.4
2024-01-29T05:34:34.045Z,26.5
2024-01-29T05:40:12.661Z,29.8
2024-01-29T05:45:50.933Z,28.1
2024-01-29T05:51:30.750Z,26.9
2024-01-29T05:57:25.163Z,28.9
2024-01-29T06:03:04.389Z,30.4
2024-01-29T06:08:46.699Z,27.4
2024-01-29T06:14:28.164Z,27.1
2024-01-29T06:20:33.011Z,30.1
2024-01-29T06:32:10.196Z,26.9
2024-01-29T06:38:07.754Z,29.4
2024-01-29T06:44:04.094Z,25.3
2024-01-29T06:49:59.064Z,27.5
2024-01-29T06:55:54.186Z,30.4
2024-01-29T07:01:48.578Z,27.6
2024-01-29T07:07:48.822Z,26.4
2024-01-29T07:13:43.747Z,25.1
2024-01-29T07:19:38.438Z,27.2
2024-01-29T07:25:34.252Z,30
2024-01-29T07:31:14.958Z,28.1
2024-01-29T07:37:10.737Z,26.9
2024-01-29T07:43:07.991Z,29.1
2024-01-29T07:49:02.726Z,29.7
2024-01-29T07:54:59.301Z,27.2
2024-01-29T08:00:54.755Z,28.2
2024-01-29T08:06:51.698Z,30.5
2024-01-29T08:12:47.050Z,27.6
2024-01-29T08:18:42.773Z,26.4
2024-01-29T08:24:42.993Z,30
2024-01-29T08:30:37.329Z,28.1
2024-01-29T08:36:34.774Z,26.9
2024-01-29T08:42:29.671Z,29.3
2024-01-29T08:48:26.759Z,29.6
2024-01-29T08:54:25.081Z,27
2024-01-29T09:00:22.160Z,28.3
2024-01-29T09:06:17.991Z,30.6
2024-01-29T09:12:24.420Z,27.3
2024-01-29T09:23:59.241Z,30.4
2024-01-29T09:29:54.851Z,27.1
2024-01-29T09:36:04.303Z,25.9
2024-01-29T09:41:58.238Z,30
2024-01-29T09:47:55.436Z,27.6
2024-01-29T09:53:22.814Z,26.1
2024-01-29T09:59:19.903Z,28.9
2024-01-29T10:05:18.460Z,29.6
2024-01-29T10:10:57.742Z,26.4
2024-01-29T10:16:51.957Z,27.6
2024-01-29T10:22:47.796Z,30.4
2024-01-29T10:28:28.563Z,26.9
2024-01-29T10:33:52.676Z,26.3
2024-01-29T10:39:03.359Z,29.9
2024-01-29T10:45:04.729Z,28.1
2024-01-29T10:50:44.544Z,26.3
2024-01-29T10:56:25.508Z,29.2
2024-01-29T11:02:15.011Z,26
2024-01-29T11:07:56.444Z,27.1
2024-01-29T11:13:38.240Z,30.3
2024-01-29T11:19:18.858Z,27.4
2024-01-29T11:25:20.852Z,26.1
2024-01-29T11:31:00.285Z,24.8
2024-01-29T11:37:11.087Z,24.3
2024-01-29T11:43:05.540Z,23.9
2024-01-29T11:49:04.093Z,27.5
2024-01-29T11:55:14.252Z,27.9
2024-01-29T12:00:54.065Z,26.6
2024-01-29T12:06:34.200Z,25.1
2024-01-29T12:12:32.722Z,24.6
2024-01-29T12:18:28.728Z,27.9
2024-01-29T12:24:26.850Z,27.9
2024-01-29T12:30:21.295Z,26.5
2024-01-29T12:36:03.494Z,24.9
2024-01-29T12:42:00.748Z,24.5
2024-01-29T12:47:54.844Z,28
2024-01-29T12:53:51.261Z,27.8
2024-01-29T12:59:31.473Z,26.4
2024-01-29T13:05:16.965Z,28
2024-01-29T13:11:16.380Z,27.4
2024-01-29T13:17:11.286Z,26.2
2024-01-29T13:23:06.593Z,28.4
2024-01-29T13:28:48.044Z,26.9
2024-01-29T13:34:46.530Z,26.1
2024-01-29T13:40:26.876Z,28.8
2024-01-29T13:46:25.543Z,26.8
2024-01-29T13:52:21.280Z,25.7
2024-01-29T13:58:17.903Z,29.2
2024-01-29T14:04:13.738Z,26.4
2024-01-29T14:10:10.352Z,25.9
2024-01-29T14:16:19.888Z,25.6
2024-01-29T14:22:16.954Z,25.4
2024-01-29T14:28:12.031Z,25.1
2024-01-29T14:34:10.768Z,24.8
2024-01-29T14:40:09.871Z,24.4
2024-01-29T14:46:04.449Z,24.2
2024-01-29T14:52:03.923Z,23.9
2024-01-29T14:57:58.117Z,29.3
2024-01-29T15:03:55.957Z,36.6
2024-01-29T15:09:53.958Z,36.6
2024-01-29T15:15:51.099Z,36.5
2024-01-29T15:21:46.732Z,41.1
2024-01-29T15:27:44.543Z,42.1
2024-01-29T15:33:39.453Z,41.7
2024-01-29T15:39:34.413Z,38.4
2024-01-29T15:45:31.473Z,37.5
2024-01-29T15:51:34.833Z,36.9
2024-01-29T15:57:28.727Z,36.3
2024-01-29T16:03:23.836Z,37.7
2024-01-29T16:09:18.685Z,37
2024-01-29T16:15:13.160Z,36.9
2024-01-29T16:21:12.484Z,36.6
2024-01-29T16:27:06.540Z,36.1
2024-01-29T16:33:02.050Z,35.6
2024-01-29T16:38:58.616Z,35.6
2024-01-29T16:44:56.323Z,38.6
2024-01-29T16:50:52.664Z,36.4
2024-01-29T16:56:47.729Z,36.5
2024-01-29T17:02:43.976Z,36.1
2024-01-29T17:08:40.065Z,35.8
2024-01-29T17:14:37.646Z,35.6
2024-01-29T17:20:36.966Z,35.4
2024-01-29T17:26:31.490Z,35.3
2024-01-29T17:32:25.546Z,35.6
2024-01-29T17:38:22.651Z,36.3
2024-01-29T17:44:18.739Z,36.3
2024-01-29T17:50:14.526Z,36.6
2024-01-29T17:56:11.699Z,38.7
2024-01-29T18:02:07.137Z,36.4
2024-01-29T18:07:46.896Z,36.6
2024-01-29T18:13:25.327Z,36.5
2024-01-29T18:19:07.763Z,36.4
2024-01-29T18:24:46.688Z,36.1
2024-01-29T18:30:43.482Z,36.1
2024-01-29T18:36:38.618Z,36.2
2024-01-29T18:42:33.000Z,38.7
2024-01-29T18:48:30.681Z,37.6
2024-01-29T18:54:25.678Z,38.2
2024-01-29T19:00:20.640Z,37.3
2024-01-29T19:06:20.163Z,36.9
2024-01-29T19:12:18.270Z,38.6
2024-01-29T19:18:16.507Z,37.4
2024-01-29T19:23:55.973Z,38.8
2024-01-29T19:29:34.791Z,37.1
2024-01-29T19:35:14.905Z,37.1
2024-01-29T19:41:10.454Z,37.1
2024-01-29T19:47:04.931Z,36.8
2024-01-29T19:53:02.654Z,37.3
2024-01-29T19:58:57.514Z,36.4
2024-01-29T20:04:52.944Z,36.5
2024-01-29T20:10:49.548Z,36
2024-01-29T20:16:44.493Z,35.3
2024-01-29T20:22:40.857Z,34.1
2024-01-29T20:28:36.862Z,32.6
2024-01-29T20:34:31.408Z,31.4
2024-01-29T20:40:28.373Z,30.4
2024-01-29T20:46:27.098Z,29.6
2024-01-29T20:52:23.520Z,29
2024-01-29T20:58:29.659Z,28.3
2024-01-29T21:04:25.000Z,27.8
2024-01-29T21:10:05.650Z,27.3
2024-01-29T21:16:03.277Z,26.9
2024-01-29T21:21:58.279Z,26.4
2024-01-29T21:27:52.753Z,26.1
2024-01-29T21:33:49.739Z,25.9
2024-01-29T21:39:28.502Z,25.6
2024-01-29T21:45:22.922Z,25.3
2024-01-29T21:51:18.536Z,24.9
2024-01-29T21:57:13.157Z,24.6
2024-01-29T22:03:10.652Z,24.4
2024-01-29T22:08:49.901Z,27
2024-01-29T22:14:29.323Z,29.4
2024-01-29T22:20:24.371Z,28.1
2024-01-29T22:26:03.869Z,26.8
2024-01-29T22:32:01.118Z,25.2
2024-01-29T22:37:40.570Z,24.8
2024-01-29T22:43:35.427Z,28.1
2024-01-29T22:49:14.564Z,30
2024-01-29T22:55:11.191Z,27.2
2024-01-29T23:00:51.458Z,25.9
2024-01-29T23:06:47.588Z,24.9
2024-01-29T23:12:41.785Z,26
2024-01-29T23:18:35.985Z,29
2024-01-29T23:24:18.301Z,28.4
2024-01-29T23:30:11.981Z,26.7
2024-01-29T23:36:07.370Z,25.1
2024-01-29T23:42:01.140Z,24.7
2024-01-29T23:53:18.901Z,29.6
2024-01-29T23:58:58.232Z,27.8
